Time;durP1;ratioP1;P1;durP2;ratioP2;P2;SDS_P1;SDS_P2;PMS_P1;PMS_P2;Temp;Humidity;BMP_temperature;BMP_pressure;BME280_temperature;BME280_humidity;BME280_pressure;Samples;Min_cycle;Max_cycle;Signal;HPM_P1;HPM_P2
2023/02/03 00:01:52;;;;;;;1.77;1.67;;;3.10;74.00;;;;;;6123107;23;20752;-74
2023/02/03 00:04:19;;;;;;;1.80;1.70;;;3.00;74.50;;;;;;6122535;23;20376;-74
2023/02/03 00:06:46;;;;;;;1.60;1.50;;;2.90;75.80;;;;;;6076609;23;20422;-73
2023/02/03 00:09:14;;;;;;;1.60;1.50;;;2.70;77.40;;;;;;6116303;23;20408;-74
2023/02/03 00:11:41;;;;;;;1.40;1.30;;;2.60;77.90;;;;;;6092384;23;20447;-74
2023/02/03 00:14:08;;;;;;;1.10;1.10;;;2.70;77.00;;;;;;6093094;23;20767;-73
2023/02/03 00:16:35;;;;;;;1.02;0.93;;;2.80;75.50;;;;;;6069007;23;20377;-73
2023/02/03 00:19:02;;;;;;;0.90;0.90;;;3.20;70.50;;;;;;6081114;23;20706;-74
2023/02/03 00:21:29;;;;;;;1.20;1.10;;;3.30;69.60;;;;;;6093887;23;20381;-74
2023/02/03 00:23:56;;;;;;;0.73;0.73;;;3.40;67.60;;;;;;6093271;23;20415;-73
2023/02/03 00:26:24;;;;;;;0.70;0.70;;;3.50;66.70;;;;;;6093052;23;20377;-74
2023/02/03 00:28:51;;;;;;;0.70;0.70;;;3.60;65.30;;;;;;6094160;23;20506;-74
2023/02/03 00:31:20;;;;;;;0.80;0.80;;;3.70;65.70;;;;;;6066371;23;20464;-74
2023/02/03 00:33:53;;;;;;;0.70;0.70;;;3.80;65.90;;;;;;6116767;23;20457;-74
2023/02/03 00:36:20;;;;;;;0.60;0.60;;;3.90;66.00;;;;;;6067927;23;20457;-74
2023/02/03 00:38:49;;;;;;;0.80;0.80;;;4.10;63.80;;;;;;6116291;23;20373;-74
2023/02/03 00:41:17;;;;;;;1.00;1.00;;;4.30;64.50;;;;;;6092238;23;20441;-73
2023/02/03 00:43:44;;;;;;;0.70;0.70;;;4.30;66.20;;;;;;6093356;23;20790;-73
2023/02/03 00:46:11;;;;;;;1.15;1.15;;;4.30;65.90;;;;;;6092548;23;20683;-73
2023/02/03 00:48:38;;;;;;;1.08;1.08;;;4.30;65.40;;;;;;6093122;23;20388;-73
2023/02/03 00:51:06;;;;;;;1.45;1.42;;;4.20;65.30;;;;;;6093875;23;20841;-74
2023/02/03 00:53:33;;;;;;;1.23;1.13;;;4.10;66.00;;;;;;6092501;23;20396;-74
2023/02/03 00:55:59;;;;;;;1.17;1.17;;;4.00;66.50;;;;;;6093830;23;20445;-75
2023/02/03 00:58:26;;;;;;;1.25;1.25;;;3.90;67.20;;;;;;6115032;23;20900;-73
2023/02/03 01:00:55;;;;;;;1.27;1.10;;;3.70;67.60;;;;;;6068343;23;20429;-75
2023/02/03 01:03:23;;;;;;;1.05;1.05;;;3.50;68.90;;;;;;6066829;23;20423;-74
2023/02/03 01:05:50;;;;;;;1.48;1.38;;;3.30;71.40;;;;;;6099602;23;20383;-73
2023/02/03 01:08:17;;;;;;;1.55;1.45;;;3.00;73.40;;;;;;6121187;23;20387;-74
2023/02/03 01:10:43;;;;;;;1.70;1.60;;;2.90;75.60;;;;;;6121352;23;20419;-74
2023/02/03 01:13:10;;;;;;;1.67;1.58;;;2.80;77.60;;;;;;6119646;23;20720;-75
2023/02/03 01:15:37;;;;;;;2.70;2.50;;;2.80;78.40;;;;;;6096644;23;20759;-74
2023/02/03 01:18:04;;;;;;;2.33;2.23;;;2.90;78.60;;;;;;6096690;23;20403;-74
2023/02/03 01:20:31;;;;;;;2.58;2.38;;;2.90;79.00;;;;;;6121458;23;20380;-74
2023/02/03 01:22:58;;;;;;;2.17;2.08;;;2.80;81.10;;;;;;6122803;23;20720;-73
2023/02/03 01:25:24;;;;;;;2.22;2.13;;;2.80;80.30;;;;;;6121226;23;20430;-73
2023/02/03 01:27:51;;;;;;;3.07;2.87;;;2.70;82.30;;;;;;6096770;23;20419;-74
2023/02/03 01:30:18;;;;;;;3.30;3.08;;;2.70;82.80;;;;;;6119845;23;20384;-74
2023/02/03 01:32:45;;;;;;;3.20;3.03;;;2.60;84.40;;;;;;6120812;23;20376;-74
2023/02/03 01:35:12;;;;;;;2.40;2.30;;;2.60;84.00;;;;;;6121611;23;20721;-73
2023/02/03 01:37:39;;;;;;;2.70;2.60;;;2.60;83.70;;;;;;6121597;23;20387;-74
2023/02/03 01:40:06;;;;;;;2.60;2.50;;;2.50;84.40;;;;;;6120993;23;20404;-74
2023/02/03 01:42:33;;;;;;;2.63;2.53;;;2.50;83.50;;;;;;6095668;23;20417;-74
2023/02/03 01:45:00;;;;;;;2.60;2.50;;;2.40;86.30;;;;;;6120996;23;20390;-73
2023/02/03 01:47:35;;;;;;;2.67;2.58;;;2.40;85.60;;;;;;6120143;23;20380;-74
2023/02/03 01:50:17;;;;;;;3.25;3.05;;;2.30;86.80;;;;;;6096879;23;20429;-74
2023/02/03 01:52:52;;;;;;;3.67;3.47;;;2.20;88.20;;;;;;6120155;23;20560;-74
2023/02/03 01:55:26;;;;;;;3.50;3.30;;;2.20;90.00;;;;;;6122089;23;20832;-74
2023/02/03 01:58:05;;;;;;;2.83;2.72;;;2.20;89.00;;;;;;6122062;23;20394;-73
2023/02/03 02:00:32;;;;;;;2.43;2.33;;;2.20;88.00;;;;;;6121855;23;20398;-76
2023/02/03 02:05:39;;;;;;;2.60;2.50;;;2.00;91.00;;;;;;6147412;23;20496;-77
2023/02/03 02:08:07;;;;;;;2.42;2.33;;;2.00;91.50;;;;;;6122477;23;20453;-77
2023/02/03 02:10:35;;;;;;;2.88;2.78;;;2.10;90.70;;;;;;6123670;23;20443;-76
2023/02/03 02:13:03;;;;;;;2.40;2.30;;;2.10;90.20;;;;;;6125968;23;20393;-75
2023/02/03 02:15:57;;;;;;;2.40;2.30;;;2.10;89.00;;;;;;6122888;23;20789;-77
2023/02/03 02:18:51;;;;;;;2.47;2.38;;;1.90;90.30;;;;;;6125598;23;20385;-75
2023/02/03 02:21:23;;;;;;;1.80;1.70;;;1.90;89.00;;;;;;6124796;23;20379;-76
2023/02/03 02:24:10;;;;;;;2.53;2.42;;;1.90;89.60;;;;;;6125767;23;20451;-76
2023/02/03 02:27:01;;;;;;;2.30;2.20;;;2.00;89.80;;;;;;6150932;23;20370;-76
2023/02/03 02:29:46;;;;;;;1.50;1.42;;;2.10;87.30;;;;;;6125138;23;20456;-75
2023/02/03 02:32:38;;;;;;;1.83;1.73;;;2.10;85.20;;;;;;6149624;23;20448;-75
2023/02/03 02:35:43;;;;;;;1.57;1.57;;;2.20;85.20;;;;;;6126196;23;20861;-76
2023/02/03 02:38:25;;;;;;;1.67;1.60;;;2.10;87.00;;;;;;6120316;23;20680;-76
2023/02/03 02:41:00;;;;;;;1.42;1.40;;;2.20;83.70;;;;;;6123431;23;20766;-76
2023/02/03 02:43:37;;;;;;;1.42;1.33;;;2.30;83.00;;;;;;6125564;23;20912;-76
2023/02/03 02:46:18;;;;;;;1.53;1.43;;;2.30;81.90;;;;;;6124319;23;20393;-76
2023/02/03 02:48:47;;;;;;;1.30;1.30;;;2.30;81.60;;;;;;6125354;23;20752;-75
2023/02/03 02:51:15;;;;;;;1.40;1.40;;;2.30;81.10;;;;;;6124349;23;20513;-75
2023/02/03 02:53:49;;;;;;;1.52;1.42;;;2.30;80.20;;;;;;6151069;23;20809;-75
2023/02/03 02:56:17;;;;;;;1.50;1.40;;;2.10;82.50;;;;;;6150584;23;20462;-76
2023/02/03 02:58:48;;;;;;;2.05;1.52;;;2.20;83.50;;;;;;6124585;23;20785;-75
2023/02/03 03:01:15;;;;;;;1.50;1.50;;;2.20;82.90;;;;;;6124144;23;20910;-75
2023/02/03 03:03:44;;;;;;;2.10;2.00;;;2.20;83.30;;;;;;6127084;23;20384;-75
2023/02/03 03:06:34;;;;;;;2.03;1.92;;;2.30;81.50;;;;;;6148772;23;20440;-75
2023/02/03 03:09:12;;;;;;;1.67;1.58;;;2.40;80.40;;;;;;6148696;23;20420;-75
2023/02/03 03:12:07;;;;;;;1.70;1.60;;;2.50;79.10;;;;;;6149487;23;20493;-75
2023/02/03 03:14:36;;;;;;;1.65;1.55;;;2.50;78.30;;;;;;6148978;23;20417;-76
2023/02/03 03:17:06;;;;;;;1.20;1.20;;;2.50;78.10;;;;;;6149846;23;20437;-76
2023/02/03 03:19:44;;;;;;;1.23;1.23;;;2.50;78.00;;;;;;6148656;23;20459;-75
2023/02/03 03:22:15;;;;;;;1.30;1.23;;;2.50;78.30;;;;;;6149772;23;20808;-76
2023/02/03 03:24:49;;;;;;;1.30;1.20;;;2.60;77.70;;;;;;6149291;23;20494;-75
2023/02/03 03:27:37;;;;;;;0.70;0.70;;;2.60;76.40;;;;;;6148420;23;20446;-76
2023/02/03 03:30:13;;;;;;;0.80;0.80;;;2.70;73.80;;;;;;6149188;23;20504;-76
2023/02/03 03:32:40;;;;;;;0.80;0.80;;;2.80;72.50;;;;;;6148952;23;20727;-76
2023/02/03 03:35:07;;;;;;;1.05;1.05;;;2.90;71.00;;;;;;6149243;23;20381;-75
2023/02/03 03:37:56;;;;;;;0.60;0.60;;;3.00;70.20;;;;;;6149024;23;20684;-75
2023/02/03 03:40:32;;;;;;;0.65;0.65;;;3.10;68.30;;;;;;6149485;23;20538;-75
2023/02/03 03:43:07;;;;;;;0.70;0.70;;;3.20;67.80;;;;;;6151010;23;20445;-75
2023/02/03 03:45:48;;;;;;;0.70;0.70;;;3.40;65.90;;;;;;6148179;23;20395;-74
2023/02/03 03:48:37;;;;;;;0.70;0.70;;;3.50;66.50;;;;;;6149284;23;20488;-75
2023/02/03 03:51:11;;;;;;;0.70;0.70;;;3.50;65.00;;;;;;6150036;23;20476;-79
2023/02/03 03:53:41;;;;;;;0.70;0.70;;;3.50;65.10;;;;;;6138608;23;20492;-75
2023/02/03 03:56:13;;;;;;;0.80;0.80;;;3.40;65.50;;;;;;6149679;23;20455;-75
2023/02/03 03:58:44;;;;;;;0.88;0.88;;;3.30;66.70;;;;;;6150099;23;20400;-75
2023/02/03 04:01:14;;;;;;;0.70;0.70;;;3.20;67.70;;;;;;6151008;23;20405;-75
2023/02/03 04:03:47;;;;;;;0.70;0.70;;;3.20;66.80;;;;;;6150178;23;20420;-75
2023/02/03 04:06:14;;;;;;;0.77;0.77;;;3.40;66.10;;;;;;6150031;23;20425;-75
2023/02/03 04:08:41;;;;;;;0.73;0.73;;;3.10;69.10;;;;;;6125292;23;20385;-75
2023/02/03 04:11:59;;;;;;;0.60;0.60;;;3.00;69.70;;;;;;6148993;23;20758;-75
2023/02/03 04:13:58;;;;;;;0.85;0.80;;;2.90;69.80;;;;;;6150596;23;20504;-75
2023/02/03 04:16:25;;;;;;;0.80;0.80;;;2.90;70.40;;;;;;6151497;23;20442;-76
2023/02/03 04:18:52;;;;;;;0.80;0.80;;;2.70;73.80;;;;;;6151193;23;20416;-76
2023/02/03 04:21:19;;;;;;;0.88;0.88;;;2.50;76.00;;;;;;6151493;23;20382;-75
2023/02/03 04:23:46;;;;;;;0.88;0.88;;;2.50;76.70;;;;;;6152402;23;20401;-75
2023/02/03 04:26:13;;;;;;;1.10;1.10;;;2.30;78.90;;;;;;6151234;23;20422;-75
2023/02/03 04:28:40;;;;;;;1.02;1.02;;;2.20;81.70;;;;;;6151568;23;20390;-75
2023/02/03 04:31:07;;;;;;;1.10;1.10;;;2.30;80.00;;;;;;6150621;23;20382;-75
2023/02/03 04:33:34;;;;;;;1.58;1.48;;;2.30;81.30;;;;;;6151776;23;20386;-75
2023/02/03 04:36:01;;;;;;;1.50;1.40;;;2.30;80.90;;;;;;6151057;23;20389;-75
2023/02/03 04:38:28;;;;;;;1.50;1.40;;;2.30;81.60;;;;;;6152036;23;20382;-75
2023/02/03 04:40:55;;;;;;;1.58;1.50;;;2.20;82.00;;;;;;6152425;23;20382;-75
2023/02/03 04:43:22;;;;;;;1.50;1.50;;;2.20;84.50;;;;;;6153677;23;20442;-75
2023/02/03 04:45:49;;;;;;;1.80;1.70;;;2.10;86.40;;;;;;6151831;23;20408;-75
2023/02/03 04:48:16;;;;;;;1.70;1.60;;;2.10;86.20;;;;;;6152176;23;20412;-75
2023/02/03 04:50:43;;;;;;;1.60;1.50;;;2.00;87.60;;;;;;6152573;23;20389;-75
2023/02/03 04:53:10;;;;;;;1.50;1.30;;;2.00;87.90;;;;;;6150614;23;20382;-75
2023/02/03 04:55:36;;;;;;;1.58;1.48;;;2.00;87.30;;;;;;6151713;23;20378;-75
2023/02/03 04:58:03;;;;;;;1.27;1.27;;;2.00;90.00;;;;;;6151359;23;20374;-75
2023/02/03 05:00:30;;;;;;;1.75;1.65;;;2.00;90.00;;;;;;6151927;23;20382;-75
2023/02/03 05:02:57;;;;;;;1.40;1.40;;;2.00;89.60;;;;;;6150660;23;20443;-74
2023/02/03 05:05:24;;;;;;;1.60;1.50;;;2.00;90.20;;;;;;6151562;23;20390;-75
2023/02/03 05:07:51;;;;;;;1.80;1.70;;;2.00;90.10;;;;;;6151341;23;20446;-75
2023/02/03 05:10:18;;;;;;;1.70;1.60;;;2.10;89.30;;;;;;6151028;23;20905;-75
2023/02/03 05:12:45;;;;;;;1.50;1.50;;;2.30;87.70;;;;;;6151380;23;20766;-75
2023/02/03 05:15:12;;;;;;;1.75;1.65;;;2.40;86.30;;;;;;6150728;23;20371;-75
2023/02/03 05:17:40;;;;;;;1.67;1.58;;;2.30;87.00;;;;;;6153124;23;20377;-75
2023/02/03 05:20:07;;;;;;;1.65;1.55;;;2.30;86.20;;;;;;6151827;23;20462;-75
2023/02/03 05:22:34;;;;;;;1.70;1.60;;;2.20;87.70;;;;;;6151692;23;20427;-75
2023/02/03 05:25:02;;;;;;;2.03;1.92;;;2.30;86.50;;;;;;6152382;23;20877;-75
2023/02/03 05:27:29;;;;;;;1.83;1.73;;;2.20;87.50;;;;;;6151245;23;20412;-74
2023/02/03 05:29:56;;;;;;;1.70;1.60;;;2.20;87.70;;;;;;6152035;23;20374;-75
2023/02/03 05:32:26;;;;;;;1.52;1.42;;;2.10;88.40;;;;;;6150714;23;20872;-75
2023/02/03 05:34:53;;;;;;;1.73;1.63;;;2.10;87.90;;;;;;6151710;23;20430;-76
2023/02/03 05:37:20;;;;;;;1.85;1.75;;;2.10;88.60;;;;;;6151752;23;20375;-75
2023/02/03 05:39:47;;;;;;;1.80;1.70;;;2.10;87.90;;;;;;6152940;23;20748;-75
2023/02/03 05:42:14;;;;;;;1.73;1.63;;;1.90;90.30;;;;;;6150673;23;20378;-75
2023/02/03 05:44:41;;;;;;;2.88;2.67;;;1.90;90.60;;;;;;6151478;23;20714;-76
2023/02/03 05:47:07;;;;;;;2.50;2.30;;;1.80;91.20;;;;;;6150885;23;20434;-75
2023/02/03 05:49:34;;;;;;;1.95;1.85;;;1.80;90.60;;;;;;6153077;23;20378;-76
2023/02/03 05:52:01;;;;;;;1.30;1.30;;;1.80;90.90;;;;;;6151127;23;20377;-76
2023/02/03 05:54:28;;;;;;;1.97;1.87;;;1.70;91.50;;;;;;6151689;23;20378;-75
2023/02/03 05:56:57;;;;;;;1.90;1.80;;;1.50;93.00;;;;;;6151299;23;20391;-75
2023/02/03 05:59:24;;;;;;;2.20;2.10;;;1.60;92.20;;;;;;6150656;23;20374;-75
2023/02/03 06:01:51;;;;;;;2.28;2.10;;;1.60;91.90;;;;;;6152532;23;20786;-74
2023/02/03 06:04:18;;;;;;;1.67;1.58;;;1.60;91.50;;;;;;6150431;23;20385;-75
2023/02/03 06:06:46;;;;;;;1.88;1.77;;;1.50;91.10;;;;;;6151353;23;20382;-74
2023/02/03 06:09:13;;;;;;;2.10;2.00;;;1.30;92.40;;;;;;6152206;23;20419;-75
2023/02/03 06:11:41;;;;;;;2.10;2.00;;;1.30;93.30;;;;;;6150900;23;20437;-75
2023/02/03 06:14:08;;;;;;;1.75;1.65;;;1.30;93.20;;;;;;6150025;23;20401;-75
2023/02/03 06:16:36;;;;;;;1.58;1.50;;;1.30;92.50;;;;;;6151181;23;20841;-75
2023/02/03 06:19:03;;;;;;;1.33;1.33;;;1.20;92.70;;;;;;6150844;23;20378;-75
2023/02/03 06:21:30;;;;;;;1.60;1.50;;;1.10;93.40;;;;;;6149484;23;20370;-75
2023/02/03 06:23:57;;;;;;;1.97;1.87;;;1.20;93.40;;;;;;6151295;23;21029;-75
2023/02/03 06:26:24;;;;;;;1.63;1.52;;;1.40;93.20;;;;;;6149963;23;20769;-75
2023/02/03 06:28:53;;;;;;;1.15;1.15;;;1.40;92.60;;;;;;6150550;23;20752;-75
2023/02/03 06:31:20;;;;;;;1.17;1.17;;;1.50;92.20;;;;;;6150015;23;20767;-75
2023/02/03 06:33:47;;;;;;;1.20;1.20;;;1.40;91.90;;;;;;6151174;23;20702;-74
2023/02/03 06:36:14;;;;;;;1.63;1.52;;;1.50;91.90;;;;;;6149594;23;20385;-73
2023/02/03 06:38:41;;;;;;;1.75;1.65;;;1.50;91.70;;;;;;6150108;23;20374;-74
2023/02/03 06:41:08;;;;;;;1.80;1.70;;;1.70;90.70;;;;;;6151017;23;20374;-74
2023/02/03 06:43:35;;;;;;;1.63;1.60;;;1.80;90.30;;;;;;6174450;23;20421;-74
2023/02/03 06:46:02;;;;;;;2.00;1.80;;;1.80;90.10;;;;;;6150940;23;20453;-74
2023/02/03 06:48:30;;;;;;;2.47;2.38;;;1.70;90.60;;;;;;6150035;23;20373;-74
2023/02/03 06:50:57;;;;;;;1.70;1.60;;;1.80;90.30;;;;;;6150724;23;20378;-75
2023/02/03 06:53:24;;;;;;;1.40;1.40;;;1.80;90.20;;;;;;6149600;23;20770;-75
2023/02/03 06:55:51;;;;;;;1.35;1.35;;;1.80;90.00;;;;;;6150496;23;20378;-75
2023/02/03 06:58:18;;;;;;;1.15;1.15;;;1.80;89.30;;;;;;6149837;23;20374;-74
2023/02/03 07:00:44;;;;;;;1.38;1.27;;;1.70;90.10;;;;;;6150671;23;20366;-74
2023/02/03 07:03:11;;;;;;;1.25;1.15;;;1.60;91.10;;;;;;6150950;23;20905;-75
2023/02/03 07:05:39;;;;;;;1.42;1.33;;;1.50;91.90;;;;;;6150002;23;20378;-74
2023/02/03 07:08:06;;;;;;;1.83;1.73;;;1.40;92.70;;;;;;6150629;23;20382;-75
2023/02/03 07:10:33;;;;;;;2.08;1.98;;;1.50;92.80;;;;;;6149391;23;20382;-74
2023/02/03 07:13:07;;;;;;;2.38;2.10;;;1.60;92.10;;;;;;6151851;23;20858;-74
2023/02/03 07:15:34;;;;;;;3.27;3.07;;;1.60;92.40;;;;;;6130170;23;20452;-74
2023/02/03 07:18:01;;;;;;;2.45;2.35;;;1.70;92.20;;;;;;6181480;23;20798;-74
2023/02/03 07:20:28;;;;;;;2.20;2.10;;;1.70;91.80;;;;;;6154582;23;20828;-75
2023/02/03 07:22:57;;;;;;;2.58;2.47;;;1.80;91.40;;;;;;6155919;23;20836;-74
2023/02/03 07:25:24;;;;;;;2.10;2.00;;;1.80;91.60;;;;;;6154698;23;20956;-75
2023/02/03 07:27:51;;;;;;;2.00;1.90;;;1.80;91.40;;;;;;6155386;23;20847;-74
2023/02/03 07:30:18;;;;;;;2.08;1.98;;;1.90;91.50;;;;;;6180854;23;20797;-74
2023/02/03 07:32:50;;;;;;;2.67;2.58;;;1.90;91.00;;;;;;6155719;23;20372;-74
2023/02/03 07:35:17;;;;;;;2.40;2.30;;;1.90;91.10;;;;;;6180984;23;20713;-74
2023/02/03 07:37:44;;;;;;;2.50;2.40;;;2.00;90.60;;;;;;6181648;23;20379;-74
2023/02/03 07:40:12;;;;;;;3.40;3.20;;;2.10;90.60;;;;;;6156109;23;20379;-74
2023/02/03 07:42:44;;;;;;;2.60;2.50;;;2.20;89.60;;;;;;6154714;23;20875;-74
2023/02/03 07:45:13;;;;;;;2.60;2.50;;;2.40;85.60;;;;;;6155083;23;20418;-75
2023/02/03 07:47:41;;;;;;;1.88;1.77;;;2.40;85.40;;;;;;6154938;23;20410;-75
2023/02/03 07:50:10;;;;;;;1.77;1.67;;;2.40;87.30;;;;;;6155596;23;20481;-75
2023/02/03 07:52:37;;;;;;;1.67;1.58;;;2.40;88.30;;;;;;6156026;23;20850;-75
2023/02/03 07:55:05;;;;;;;1.80;1.70;;;2.40;86.90;;;;;;6158138;23;20473;-74
2023/02/03 07:57:35;;;;;;;3.72;3.53;;;2.60;84.60;;;;;;6156893;23;20390;-75
2023/02/03 08:00:07;;;;;;;2.95;2.70;;;2.70;83.80;;;;;;6183366;23;20750;-75
2023/02/03 08:02:34;;;;;;;1.30;1.30;;;2.70;85.10;;;;;;6156243;23;20422;-75
2023/02/03 08:05:00;;;;;;;1.20;1.20;;;2.70;84.20;;;;;;6157176;23;20372;-75
2023/02/03 08:07:28;;;;;;;1.38;1.27;;;2.70;85.00;;;;;;6156300;23;20411;-75
2023/02/03 08:09:55;;;;;;;1.30;1.20;;;2.60;87.90;;;;;;6157272;23;20682;-75
2023/02/03 08:12:22;;;;;;;1.20;1.10;;;2.50;91.40;;;;;;6156232;23;20744;-74
2023/02/03 08:14:48;;;;;;;1.20;1.20;;;2.50;91.50;;;;;;6156831;23;20733;-76
2023/02/03 08:17:15;;;;;;;1.10;1.10;;;2.50;92.60;;;;;;6157308;23;20384;-76
2023/02/03 08:19:42;;;;;;;1.40;1.40;;;2.50;93.00;;;;;;6182950;23;20365;-75
2023/02/03 08:22:14;;;;;;;1.45;1.45;;;2.80;92.10;;;;;;6157219;23;20430;-75
2023/02/03 08:24:44;;;;;;;1.60;1.50;;;3.20;90.90;;;;;;6156654;23;20466;-75
2023/02/03 08:27:17;;;;;;;1.33;1.33;;;3.50;87.00;;;;;;6156889;23;20384;-75
2023/02/03 08:29:45;;;;;;;2.13;2.03;;;3.90;80.30;;;;;;6156161;23;20490;-75
2023/02/03 08:32:14;;;;;;;2.57;2.37;;;4.40;77.40;;;;;;6156817;23;20381;-74
2023/02/03 08:34:42;;;;;;;2.85;2.75;;;4.90;75.50;;;;;;6181639;23;20392;-75
2023/02/03 08:37:10;;;;;;;2.30;2.20;;;5.20;72.00;;;;;;6157036;23;20383;-75
2023/02/03 08:39:38;;;;;;;2.00;1.90;;;5.50;68.10;;;;;;6181879;23;20422;-75
2023/02/03 08:42:06;;;;;;;2.00;1.90;;;5.70;66.10;;;;;;6182657;23;20384;-75
2023/02/03 08:44:33;;;;;;;2.35;2.22;;;6.00;65.30;;;;;;6181724;23;20376;-75
2023/02/03 08:47:01;;;;;;;1.93;1.83;;;6.20;64.30;;;;;;6156352;23;20920;-75
2023/02/03 08:49:29;;;;;;;1.98;1.88;;;6.50;62.30;;;;;;6155884;23;20412;-75
2023/02/03 08:51:57;;;;;;;2.30;2.20;;;6.80;61.00;;;;;;6155244;23;20741;-75
2023/02/03 08:54:25;;;;;;;2.50;2.40;;;7.20;60.80;;;;;;6182708;23;20768;-75
2023/02/03 08:56:52;;;;;;;1.83;1.73;;;7.40;58.60;;;;;;6155773;23;20372;-75
2023/02/03 08:59:19;;;;;;;1.33;1.23;;;7.70;57.70;;;;;;6156587;23;20690;-75
2023/02/03 09:01:47;;;;;;;1.60;1.50;;;7.90;56.40;;;;;;6181280;23;20481;-76
2023/02/03 09:04:18;;;;;;;1.60;1.50;;;8.10;56.80;;;;;;6151265;23;20842;-76
2023/02/03 09:06:46;;;;;;;2.67;1.17;;;8.30;56.80;;;;;;6150772;23;20739;-76
2023/02/03 09:09:14;;;;;;;0.90;0.90;;;8.60;57.10;;;;;;6152017;23;20433;-76
2023/02/03 09:11:42;;;;;;;0.95;0.95;;;8.60;58.40;;;;;;6150152;23;20832;-75
2023/02/03 09:14:09;;;;;;;1.70;1.15;;;8.80;58.00;;;;;;6152771;23;20386;-75
2023/02/03 09:16:37;;;;;;;1.30;1.20;;;8.90;56.80;;;;;;6150845;23;20382;-76
2023/02/03 09:19:04;;;;;;;1.20;1.20;;;9.00;57.30;;;;;;6151741;23;20409;-76
2023/02/03 09:21:31;;;;;;;0.98;0.98;;;9.10;56.50;;;;;;6152316;23;20382;-76
2023/02/03 09:24:14;;;;;;;1.00;1.00;;;9.10;57.20;;;;;;6151317;23;20384;-76
2023/02/03 09:26:41;;;;;;;1.13;1.13;;;9.20;56.90;;;;;;6150592;23;21040;-76
2023/02/03 09:29:08;;;;;;;1.05;1.05;;;9.30;57.10;;;;;;6151383;23;20389;-75
2023/02/03 09:31:35;;;;;;;1.20;1.20;;;9.50;56.80;;;;;;6150243;23;20382;-76
2023/02/03 09:34:02;;;;;;;2.00;1.90;;;9.70;56.70;;;;;;6149854;23;20847;-76
2023/02/03 09:36:29;;;;;;;1.20;1.20;;;9.80;55.60;;;;;;6152898;23;20426;-76
2023/02/03 09:38:57;;;;;;;1.40;1.20;;;10.00;55.90;;;;;;6150239;23;20377;-76
2023/02/03 09:41:35;;;;;;;0.90;0.90;;;10.10;54.20;;;;;;6153103;23;20437;-76
2023/02/03 09:44:17;;;;;;;1.00;0.80;;;10.40;53.20;;;;;;6150614;23;20370;-76
2023/02/03 09:46:49;;;;;;;0.80;0.80;;;10.70;52.60;;;;;;6149988;23;20476;-76
2023/02/03 09:49:24;;;;;;;1.30;1.00;;;10.80;51.50;;;;;;6150905;23;20374;-76
2023/02/03 09:52:12;;;;;;;0.77;0.77;;;11.00;50.20;;;;;;6151664;23;20886;-76
2023/02/03 09:55:04;;;;;;;0.70;0.70;;;11.30;48.30;;;;;;6150349;23;20452;-75
2023/02/03 09:57:39;;;;;;;0.90;0.60;;;11.40;47.70;;;;;;6140023;23;20834;-76
2023/02/03 10:00:22;;;;;;;0.73;0.73;;;11.60;48.10;;;;;;6150480;23;20401;-76
2023/02/03 10:03:01;;;;;;;1.15;0.80;;;11.90;47.40;;;;;;6150206;23;20374;-76
2023/02/03 10:05:45;;;;;;;0.70;0.70;;;12.10;47.40;;;;;;6177959;23;20377;-75
2023/02/03 10:08:18;;;;;;;1.33;0.80;;;12.20;46.80;;;;;;6154962;23;20380;-75
2023/02/03 10:11:29;;;;;;;0.70;0.70;;;12.10;46.80;;;;;;6155982;23;20380;-75
2023/02/03 10:14:21;;;;;;;0.80;0.80;;;12.10;45.00;;;;;;6136495;23;20373;-75
2023/02/03 10:17:19;;;;;;;0.70;0.70;;;12.40;45.00;;;;;;6180868;23;20411;-75
2023/02/03 10:20:13;;;;;;;1.10;0.60;;;12.60;44.80;;;;;;6180746;23;20760;-75
2023/02/03 10:22:45;;;;;;;0.63;0.63;;;12.80;43.40;;;;;;6154215;23;20377;-75
2023/02/03 10:25:53;;;;;;;0.60;0.60;;;13.00;43.50;;;;;;6156168;23;20415;-75
2023/02/03 10:28:28;;;;;;;0.68;0.60;;;13.10;43.00;;;;;;6155451;23;20692;-75
2023/02/03 10:30:58;;;;;;;0.70;0.70;;;13.20;41.90;;;;;;6156055;23;20373;-75
2023/02/03 10:33:28;;;;;;;0.70;0.60;;;13.30;42.90;;;;;;6155033;23;20693;-75
2023/02/03 10:36:20;;;;;;;0.60;0.60;;;13.40;42.40;;;;;;6131861;23;20372;-75
2023/02/03 10:38:47;;;;;;;0.70;0.70;;;13.40;40.50;;;;;;6181256;23;20368;-75
2023/02/03 10:41:16;;;;;;;0.70;0.70;;;13.50;40.20;;;;;;6155273;23;20701;-76
2023/02/03 10:43:47;;;;;;;1.00;0.80;;;13.60;41.50;;;;;;6154235;23;20372;-75
2023/02/03 10:46:16;;;;;;;0.70;0.70;;;13.70;41.30;;;;;;6131769;23;20395;-75
2023/02/03 10:48:43;;;;;;;0.90;0.90;;;13.90;41.00;;;;;;6154607;23;20738;-75
2023/02/03 10:51:22;;;;;;;0.70;0.70;;;14.00;41.40;;;;;;6155569;23;20376;-75
2023/02/03 10:53:52;;;;;;;0.57;0.57;;;14.10;40.80;;;;;;6181049;23;20813;-75
2023/02/03 10:56:45;;;;;;;0.85;0.50;;;14.20;38.10;;;;;;6155694;23;20757;-75
2023/02/03 10:59:28;;;;;;;0.40;0.40;;;14.30;37.70;;;;;;6151562;23;20439;-75
2023/02/03 11:01:58;;;;;;;0.40;0.40;;;14.40;35.50;;;;;;6180604;23;20898;-76
2023/02/03 11:04:46;;;;;;;3.10;2.92;;;14.50;35.40;;;;;;6155102;23;20400;-75
2023/02/03 11:07:29;;;;;;;0.80;0.80;;;14.60;34.20;;;;;;6180401;23;20368;-76
2023/02/03 11:09:56;;;;;;;6.83;6.20;;;14.80;34.30;;;;;;6154197;23;20376;-76
2023/02/03 11:12:23;;;;;;;0.80;0.80;;;14.90;33.80;;;;;;6155653;23;20373;-74
2023/02/03 11:14:52;;;;;;;1.10;0.80;;;14.90;32.30;;;;;;6155083;23;20407;-75
2023/02/03 11:17:29;;;;;;;0.40;0.40;;;14.90;31.90;;;;;;6154342;23;20368;-74
2023/02/03 11:20:12;;;;;;;0.30;0.30;;;14.90;32.80;;;;;;6154738;23;20841;-74
2023/02/03 11:22:41;;;;;;;0.50;0.30;;;15.20;32.70;;;;;;6153800;23;20438;-74
2023/02/03 11:25:19;;;;;;;0.30;0.30;;;15.20;32.20;;;;;;6153781;23;20437;-76
2023/02/03 11:27:46;;;;;;;0.30;0.30;;;15.30;32.60;;;;;;6157771;23;20368;-75
2023/02/03 11:30:31;;;;;;;0.93;0.50;;;15.40;32.10;;;;;;6155840;23;20459;-76
2023/02/03 11:33:01;;;;;;;0.35;0.35;;;15.30;32.10;;;;;;6156631;23;20768;-75
2023/02/03 11:35:32;;;;;;;0.30;0.30;;;15.50;32.50;;;;;;6156700;23;20448;-75
2023/02/03 11:38:01;;;;;;;0.30;0.30;;;15.60;32.00;;;;;;6181989;23;20469;-76
2023/02/03 11:40:31;;;;;;;0.40;0.30;;;15.60;31.80;;;;;;6183754;23;20369;-75
2023/02/03 11:43:03;;;;;;;0.20;0.20;;;15.70;30.30;;;;;;6170543;23;20384;-76
2023/02/03 11:45:41;;;;;;;1.00;0.30;;;15.60;30.20;;;;;;6182241;23;20460;-75
2023/02/03 11:48:29;;;;;;;0.30;0.30;;;15.70;29.80;;;;;;6181726;23;20847;-76
2023/02/03 11:51:17;;;;;;;0.20;0.20;;;15.70;30.80;;;;;;6183184;23;20752;-76
2023/02/03 11:53:54;;;;;;;0.25;0.20;;;15.80;30.20;;;;;;6155590;23;20411;-75
2023/02/03 11:56:45;;;;;;;0.30;0.30;;;15.80;30.10;;;;;;6156277;23;20794;-75
2023/02/03 11:59:30;;;;;;;0.40;0.40;;;15.60;30.40;;;;;;6157100;23;20443;-75
2023/02/03 12:02:05;;;;;;;1.60;0.60;;;15.80;32.50;;;;;;6155922;23;20446;-75
2023/02/03 12:05:16;;;;;;;0.30;0.30;;;15.70;32.20;;;;;;6156482;23;20434;-75
2023/02/03 12:08:07;;;;;;;0.40;0.40;;;15.80;30.80;;;;;;6156306;23;20415;-75
2023/02/03 12:10:59;;;;;;;0.30;0.30;;;15.80;30.60;;;;;;6155916;23;20682;-75
2023/02/03 12:14:03;;;;;;;0.30;0.30;;;15.90;30.40;;;;;;6155188;23;20369;-75
2023/02/03 12:16:55;;;;;;;0.30;0.30;;;16.20;30.80;;;;;;6156315;23;20372;-75
2023/02/03 12:19:37;;;;;;;0.20;0.20;;;16.50;30.00;;;;;;6156843;23;20432;-75
2023/02/03 12:22:22;;;;;;;0.22;0.22;;;16.50;30.70;;;;;;6182065;23;20377;-76
2023/02/03 12:25:21;;;;;;;0.30;0.30;;;16.70;30.20;;;;;;6155715;23;20932;-76
2023/02/03 12:28:17;;;;;;;0.30;0.30;;;16.80;30.00;;;;;;6154770;23;20431;-75
2023/02/03 12:31:28;;;;;;;0.30;0.30;;;16.70;32.00;;;;;;6182350;23;20434;-75
2023/02/03 12:34:32;;;;;;;0.40;0.40;;;17.00;31.50;;;;;;6172529;23;20400;-75
2023/02/03 12:37:05;;;;;;;0.82;0.40;;;17.00;32.90;;;;;;6181917;23;20384;-75
2023/02/03 12:39:44;;;;;;;0.43;0.43;;;16.70;32.70;;;;;;6156953;23;20414;-75
2023/02/03 12:42:29;;;;;;;0.77;0.50;;;16.90;32.80;;;;;;6156009;23;20438;-75
2023/02/03 12:45:10;;;;;;;0.40;0.40;;;16.90;33.30;;;;;;6155049;23;20388;-75
2023/02/03 12:47:49;;;;;;;0.43;0.40;;;17.20;33.70;;;;;;6157166;23;20423;-76
2023/02/03 12:50:16;;;;;;;0.50;0.50;;;17.30;34.20;;;;;;6155672;23;20840;-75
2023/02/03 12:52:51;;;;;;;0.45;0.40;;;17.40;33.20;;;;;;6157046;23;20400;-76
2023/02/03 12:55:54;;;;;;;1.10;0.40;;;17.40;33.50;;;;;;6155854;23;20369;-75
2023/02/03 12:58:33;;;;;;;0.50;0.50;;;17.10;33.90;;;;;;6146250;23;20737;-76
2023/02/03 13:01:41;;;;;;;0.50;0.50;;;17.10;34.10;;;;;;6155566;23;20844;-76
2023/02/03 13:04:25;;;;;;;0.40;0.40;;;17.10;33.80;;;;;;6154470;23;21620;-75
2023/02/03 13:07:10;;;;;;;0.43;0.43;;;17.30;33.90;;;;;;6156570;23;20372;-76
2023/02/03 13:09:48;;;;;;;0.50;0.50;;;17.70;34.10;;;;;;6155747;23;20360;-76
2023/02/03 13:12:27;;;;;;;0.43;0.43;;;18.00;33.20;;;;;;6153673;23;20911;-75
2023/02/03 13:15:17;;;;;;;0.40;0.40;;;18.10;32.00;;;;;;6157014;23;20714;-76
2023/02/03 13:18:03;;;;;;;0.52;0.52;;;18.00;33.60;;;;;;6181111;23;20423;-77
2023/02/03 13:20:34;;;;;;;0.60;0.60;;;17.50;34.90;;;;;;6155632;23;20387;-75
2023/02/03 13:23:13;;;;;;;0.77;0.50;;;17.50;34.80;;;;;;6156581;23;20384;-76
2023/02/03 13:26:07;;;;;;;0.55;0.52;;;17.40;35.00;;;;;;6155253;23;20384;-75
2023/02/03 13:28:49;;;;;;;1.10;0.57;;;17.30;34.40;;;;;;6181777;23;20388;-76